Portada
METAR-TAF:

METAR-TAF

Aeroports :

Savannakhet, Laos

latitud: 16-33-24N, longitud: 104-45-34E, altitud: 155 m

Observació

L'informe es va fer fa 17 minuts, a les 11:00 UTC
Vent 2 kt del Est/Nord-Est
Temperatura 29°C
Humitat 70%
Pressió 1007 hPa
Visibilitat: 7000 m
Núvols disperses a una alçada de 2000 ft
Núvols disperses a una alçada de 4000 ft
Cel ennuvolat a una alçada de 10000 ft

METAR: VLSK 181100Z 06002KT 7000 SCT020 SCT040 BKN100 29/23 Q1007 NOSIG

Hora: 18:17 (11:17 UTC)

Pronòstic

L'informe es va fer fa 6 hores i 17 minuts, a les 05:00 UTC
Pronòstic vàlid del 18 a les 06 UTC al 19 a les 06 UTC
Vent 4 kt del Est
Visibilitat: 7000 m
Núvols disperses a una alçada de 2000 ft
Cel ennuvolat a una alçada de 10000 ft

TAF: VLSK 180500Z 1806/1906 09004KT 7000 SCT020 BKN100

Observacions i pronòstics meteorològics de més de 4000 aeroports (METAR i TAF).

Les estacions disponibles són els punts grocs i vermells al mapa.

Posi el ratolí al punt desitjat per veure el nom de l'estació.

Feu clic per veure les observacions i els pronòstics meteorològics.

Per canviar el mapa: feu clic els botons verds amb una creu de color negre per apropar; al botó verd amb un guió per allunyar la imatge; o en les fletxes verdes per a mapes adjacents.


METAR-TAF: